Time;durP1;ratioP1;P1;durP2;ratioP2;P2;SDS_P1;SDS_P2;PMS_P1;PMS_P2;Temp;Humidity;BMP_temperature;BMP_pressure;BME280_temperature;BME280_humidity;BME280_pressure;Samples;Min_cycle;Max_cycle;Signal;HPM_P1;HPM_P2
2022/10/01 00:01:13;;;;;;;31.50;17.30;;;;;;;12.01;100.00;98634.06;4368478;32;20040;-72
2022/10/01 00:03:46;;;;;;;28.10;16.95;;;;;;;11.75;100.00;98608.91;4369064;32;20088;-73
2022/10/01 00:06:16;;;;;;;29.52;15.63;;;;;;;11.95;100.00;98652.13;4368882;32;20024;-72
2022/10/01 00:08:47;;;;;;;25.42;14.77;;;;;;;11.96;100.00;98615.97;4374706;32;20120;-72
2022/10/01 00:11:17;;;;;;;25.83;14.77;;;;;;;11.96;100.00;98615.97;4385964;32;20069;-72
2022/10/01 00:13:45;;;;;;;26.92;15.02;;;;;;;12.17;100.00;98657.28;4382358;32;20035;-72
2022/10/01 00:16:14;;;;;;;26.42;14.55;;;;;;;12.12;100.00;98661.84;4397742;32;20070;-72
2022/10/01 00:18:42;;;;;;;28.35;15.32;;;;;;;12.11;100.00;98665.63;4395713;32;20027;-73
2022/10/01 00:21:11;;;;;;;24.60;15.20;;;;;;;11.75;100.00;98625.09;4397690;32;20530;-72
2022/10/01 00:23:38;;;;;;;26.17;15.40;;;;;;;12.22;100.00;98667.28;4394288;32;20052;-72
2022/10/01 00:28:46;;;;;;;25.33;14.23;;;;;;;12.51;100.00;98691.84;4353280;32;20097;-72
2022/10/01 00:31:14;;;;;;;22.52;13.57;;;;;;;11.88;100.00;98624.56;4352975;32;20152;-72
2022/10/01 00:33:41;;;;;;;30.20;17.15;;;;;;;12.42;100.00;98682.66;4353677;32;20049;-72
2022/10/01 00:36:15;;;;;;;33.00;15.95;;;;;;;12.50;100.00;98689.41;4351425;32;20296;-75
2022/10/01 00:38:41;;;;;;;24.05;14.52;;;;;;;12.43;100.00;98678.88;4341784;32;20247;-72
2022/10/01 00:41:08;;;;;;;34.75;15.77;;;;;;;12.30;100.00;98680.25;4350589;32;20040;-72
2022/10/01 00:43:42;;;;;;;30.15;15.80;;;;;;;12.34;100.00;98675.91;4353465;32;20082;-72
2022/10/01 00:46:19;;;;;;;39.83;18.70;;;;;;;12.12;100.00;98635.69;4365437;32;20031;-73
2022/10/01 00:48:58;;;;;;;35.60;17.42;;;;;;;12.44;100.00;98674.28;4353462;32;20163;-72
2022/10/01 00:51:31;;;;;;;33.90;17.85;;;;;;;12.07;100.00;98632.97;4353525;32;20465;-72
2022/10/01 00:54:05;;;;;;;29.85;17.77;;;;;;;11.78;100.00;98597.59;4321951;33;20182;-72
2022/10/01 00:56:33;;;;;;;33.75;19.15;;;;;;;11.71;100.00;98605.13;4330608;33;20049;-72
2022/10/01 00:59:00;;;;;;;32.95;18.00;;;;;;;11.98;100.00;98657.00;4353377;32;20449;-73
2022/10/01 01:08:04;;;;;;;31.50;16.73;;;;;;;12.51;100.00;98674.84;4359162;32;20069;-76
2022/10/01 01:10:49;;;;;;;35.55;20.05;;;;;;;12.56;100.00;98666.72;4367662;32;20426;-73
2022/10/01 01:13:38;;;;;;;28.75;17.62;;;;;;;12.43;100.00;98618.66;4365652;32;20512;-73
2022/10/01 01:16:37;;;;;;;27.92;15.02;;;;;;;12.63;100.00;98634.84;4367697;32;21397;-73
2022/10/01 01:19:48;;;;;;;28.73;15.60;;;;;;;12.91;100.00;98651.53;4365792;32;20061;-75
2022/10/01 01:22:21;;;;;;;26.58;13.85;;;;;;;12.49;100.00;98574.38;4345107;32;20065;-72
2022/10/01 01:24:49;;;;;;;24.48;14.45;;;;;;;12.59;100.00;98585.16;4373780;32;20426;-72
2022/10/01 01:27:53;;;;;;;26.23;15.52;;;;;;;12.96;100.00;98638.00;4385670;32;20042;-72
2022/10/01 01:30:20;;;;;;;27.80;15.77;;;;;;;12.99;100.00;98642.88;4383672;32;20039;-71
2022/10/01 01:33:10;;;;;;;26.02;14.45;;;;;;;12.35;100.00;98569.53;4385431;32;20090;-71
2022/10/01 01:35:45;;;;;;;24.87;14.55;;;;;;;12.34;100.00;98557.12;4387794;32;20064;-73
2022/10/01 01:38:21;;;;;;;30.70;15.68;;;;;;;12.76;100.00;98635.34;4389183;32;20081;-72
2022/10/01 01:40:54;;;;;;;31.08;16.12;;;;;;;12.52;100.00;98617.03;4367482;32;20032;-72
2022/10/01 01:43:32;;;;;;;28.55;15.32;;;;;;;12.49;100.00;98617.56;4373050;32;20053;-72
2022/10/01 01:46:01;;;;;;;38.80;17.90;;;;;;;12.23;100.00;98617.59;4371319;32;20039;-71
2022/10/01 01:48:29;;;;;;;31.37;16.15;;;;;;;12.15;100.00;98612.75;4368030;32;20094;-71
2022/10/01 01:51:02;;;;;;;27.95;16.15;;;;;;;12.10;100.00;98615.44;4336358;33;20460;-71
2022/10/01 01:53:31;;;;;;;29.40;17.35;;;;;;;11.61;100.00;98625.59;4313956;33;20120;-71
2022/10/01 01:55:59;;;;;;;32.08;16.98;;;;;;;11.64;100.00;98630.44;4308979;33;20040;-72
2022/10/01 01:58:27;;;;;;;31.15;17.62;;;;;;;11.63;100.00;98628.03;4308865;33;20467;-72
2022/10/01 02:00:54;;;;;;;28.60;17.62;;;;;;;11.86;100.00;98594.34;4309055;33;20075;-72
2022/10/01 02:03:24;;;;;;;31.27;17.85;;;;;;;12.10;100.00;98628.94;4307888;33;20057;-75
2022/10/01 02:06:21;;;;;;;30.33;16.87;;;;;;;12.21;100.00;98638.66;4311113;33;20053;-72
2022/10/01 02:09:00;;;;;;;30.85;16.50;;;;;;;11.82;100.00;98631.84;4298869;33;20045;-72
2022/10/01 02:11:31;;;;;;;31.37;16.40;;;;;;;11.76;100.00;98645.59;4316266;33;20313;-72
2022/10/01 02:14:50;;;;;;;30.50;16.50;;;;;;;12.11;100.00;98638.63;4311694;33;20037;-73
2022/10/01 02:17:56;;;;;;;28.95;14.93;;;;;;;12.38;100.00;98626.78;4267336;33;20067;-72
2022/10/01 02:20:32;;;;;;;30.00;15.80;;;;;;;12.51;100.00;98620.84;4224061;33;20080;-72
2022/10/01 02:23:05;;;;;;;29.95;14.77;;;;;;;12.56;100.00;98639.72;4251117;33;20342;-72
2022/10/01 02:25:38;;;;;;;33.25;18.25;;;;;;;12.45;100.00;98632.72;4251238;33;20043;-73
2022/10/01 02:28:09;;;;;;;36.15;17.25;;;;;;;12.41;100.00;98642.44;4253961;33;20093;-72
2022/10/01 02:30:40;;;;;;;27.20;15.80;;;;;;;12.11;100.00;98638.63;4265790;33;20456;-73
2022/10/01 02:33:09;;;;;;;33.22;16.55;;;;;;;12.17;100.00;98626.78;4264314;33;20051;-73
2022/10/01 02:35:37;;;;;;;30.60;16.55;;;;;;;12.11;100.00;98590.06;4267771;33;20049;-72
2022/10/01 02:38:06;;;;;;;29.37;16.42;;;;;;;12.09;100.00;98592.22;4266972;33;20041;-72
2022/10/01 02:40:37;;;;;;;27.10;15.77;;;;;;;12.59;100.00;98643.75;4267575;33;20065;-73
2022/10/01 02:43:12;;;;;;;28.95;15.70;;;;;;;12.57;100.00;98630.53;4266542;33;20034;-75
2022/10/01 02:45:42;;;;;;;27.05;15.00;;;;;;;12.56;100.00;98596.50;4264654;33;20075;-72
2022/10/01 02:48:11;;;;;;;30.67;15.02;;;;;;;12.32;100.00;98580.09;4277883;33;20067;-72
2022/10/01 02:50:47;;;;;;;30.90;15.23;;;;;;;12.62;100.00;98652.16;4283171;33;20052;-74
2022/10/01 02:53:27;;;;;;;26.08;15.18;;;;;;;12.54;100.00;98641.91;4295272;33;20121;-72
2022/10/01 02:55:55;;;;;;;35.05;14.90;;;;;;;12.62;100.00;98645.91;4312701;32;20066;-72
2022/10/01 02:58:22;;;;;;;29.50;15.80;;;;;;;12.29;100.00;98603.03;4360128;32;20446;-72
2022/10/01 03:00:49;;;;;;;27.98;15.45;;;;;;;12.48;100.00;98638.38;4364233;32;20201;-72
2022/10/01 03:03:15;;;;;;;32.65;17.55;;;;;;;12.61;100.00;98642.41;4369877;32;20577;-72
2022/10/01 03:05:41;;;;;;;29.45;16.08;;;;;;;12.16;100.00;98565.78;4369634;32;20061;-73
2022/10/01 03:08:14;;;;;;;31.75;17.08;;;;;;;12.30;100.00;98609.22;4361634;32;20039;-75
2022/10/01 03:10:40;;;;;;;29.50;16.40;;;;;;;12.25;100.00;98606.53;4336944;33;20119;-71
2022/10/01 03:13:07;;;;;;;29.35;15.00;;;;;;;12.45;100.00;98611.91;4340250;32;20061;-74
2022/10/01 03:15:33;;;;;;;27.33;15.15;;;;;;;12.40;100.00;98598.44;4337671;33;20028;-72
2022/10/01 03:17:59;;;;;;;32.08;16.95;;;;;;;12.40;100.00;98624.59;4339609;33;20040;-72
2022/10/01 03:20:26;;;;;;;27.25;17.55;;;;;;;12.03;100.00;98625.69;4338210;33;20065;-73
2022/10/01 03:22:59;;;;;;;29.60;16.90;;;;;;;11.84;100.00;98618.09;4373701;32;20296;-73
2022/10/01 03:25:26;;;;;;;31.05;15.85;;;;;;;11.78;100.00;98619.16;4384070;32;20399;-72
2022/10/01 03:27:52;;;;;;;27.05;15.23;;;;;;;11.64;100.00;98630.44;4384881;32;20053;-72
2022/10/01 03:30:19;;;;;;;30.62;16.67;;;;;;;11.52;100.00;98615.59;4370648;32;20027;-72
2022/10/01 03:32:45;;;;;;;29.95;15.07;;;;;;;11.24;100.00;98586.13;4376055;32;20028;-73
2022/10/01 03:35:12;;;;;;;26.02;15.77;;;;;;;11.12;100.00;98580.19;4384234;32;20047;-72
2022/10/01 03:37:38;;;;;;;34.25;15.98;;;;;;;11.31;100.00;98633.59;4384773;32;20413;-72
2022/10/01 03:40:05;;;;;;;28.23;15.27;;;;;;;11.06;100.00;98583.94;4383680;32;20078;-72
2022/10/01 03:42:32;;;;;;;32.25;17.40;;;;;;;11.32;100.00;98627.16;4384864;32;20053;-71
2022/10/01 03:44:58;;;;;;;30.60;15.50;;;;;;;11.29;100.00;98619.59;4380348;32;20397;-73
2022/10/01 03:47:24;;;;;;;29.83;16.98;;;;;;;10.90;100.00;98583.06;4372959;32;20043;-72
2022/10/01 03:49:51;;;;;;;36.10;19.40;;;;;;;11.05;100.00;98617.34;4352374;32;20085;-72
2022/10/01 03:52:17;;;;;;;34.47;19.12;;;;;;;10.88;100.00;98588.72;4354559;32;20032;-73
2022/10/01 03:54:44;;;;;;;40.70;18.75;;;;;;;10.89;100.00;98613.75;4354017;32;20059;-75
2022/10/01 03:57:10;;;;;;;38.00;18.05;;;;;;;10.80;100.00;98589.22;4351339;32;20035;-72
2022/10/01 03:59:37;;;;;;;36.47;19.65;;;;;;;10.90;100.00;98596.53;4353574;32;20039;-72
2022/10/01 04:02:03;;;;;;;34.58;19.75;;;;;;;10.73;100.00;98567.09;4353433;32;20032;-72
2022/10/01 04:04:30;;;;;;;36.03;19.73;;;;;;;11.00;100.00;98593.06;4353925;32;20051;-71
2022/10/01 04:07:03;;;;;;;33.95;19.45;;;;;;;10.63;100.00;98545.50;4347977;32;20033;-71
2022/10/01 04:09:29;;;;;;;44.13;19.42;;;;;;;10.78;100.00;98596.72;4338724;33;20151;-72
2022/10/01 04:11:56;;;;;;;42.22;19.10;;;;;;;10.71;100.00;98580.00;4352383;32;20082;-71
2022/10/01 04:14:22;;;;;;;33.30;18.77;;;;;;;10.75;100.00;98586.47;4330246;33;20108;-72
2022/10/01 04:16:51;;;;;;;37.67;19.80;;;;;;;10.73;100.00;98599.41;4324286;33;20056;-72
2022/10/01 04:19:18;;;;;;;42.70;20.62;;;;;;;10.61;100.00;98545.75;4343570;32;20092;-72
2022/10/01 04:21:44;;;;;;;39.92;21.02;;;;;;;10.95;100.00;98579.59;4379364;32;20043;-72
2022/10/01 04:24:11;;;;;;;40.45;21.90;;;;;;;11.07;100.00;98593.63;4384233;32;20034;-72
2022/10/01 04:26:37;;;;;;;45.58;20.60;;;;;;;11.03;100.00;98587.16;4383283;32;20433;-74
2022/10/01 04:29:03;;;;;;;40.75;21.80;;;;;;;10.62;100.00;98560.03;4382572;32;20054;-72
2022/10/01 04:31:33;;;;;;;43.05;22.25;;;;;;;10.69;100.00;98592.91;4383327;32;20043;-72
2022/10/01 04:34:00;;;;;;;43.42;23.00;;;;;;;10.28;100.00;98544.19;4384212;32;20060;-72
2022/10/01 04:36:26;;;;;;;46.72;22.40;;;;;;;10.45;100.00;98554.81;4382281;32;20188;-71
2022/10/01 04:38:54;;;;;;;42.03;22.87;;;;;;;10.68;100.00;98575.16;4381980;32;20120;-74
2022/10/01 04:41:21;;;;;;;46.08;23.92;;;;;;;10.90;100.00;98601.91;4353668;32;20055;-71
2022/10/01 04:43:47;;;;;;;41.83;23.27;;;;;;;10.49;100.00;98572.88;4352586;32;20032;-71
2022/10/01 04:46:15;;;;;;;52.83;24.02;;;;;;;10.44;100.00;98580.94;4364315;32;20040;-71
2022/10/01 04:48:42;;;;;;;44.90;23.85;;;;;;;10.42;100.00;98599.22;4368002;32;20052;-75
2022/10/01 04:51:08;;;;;;;42.38;23.83;;;;;;;10.12;100.00;98554.84;4382813;32;20049;-71
2022/10/01 04:53:34;;;;;;;54.17;23.12;;;;;;;10.21;100.00;98575.87;4382756;32;20027;-71
2022/10/01 04:56:01;;;;;;;41.40;22.70;;;;;;;10.42;100.00;98601.91;4383507;32;20057;-71
2022/10/01 04:58:27;;;;;;;52.92;23.85;;;;;;;10.57;100.00;98611.16;4378768;32;20032;-71
2022/10/01 05:04:24;;;;;;;42.00;23.48;;;;;;;10.21;100.00;98608.16;4367630;32;20413;-74
2022/10/01 05:06:50;;;;;;;47.92;23.98;;;;;;;9.92;100.00;98570.81;4338614;33;20440;-72
2022/10/01 05:09:16;;;;;;;48.72;23.75;;;;;;;10.18;100.00;98610.31;4338819;33;20058;-71
2022/10/01 05:11:43;;;;;;;51.97;24.08;;;;;;;10.11;100.00;98614.28;4341687;32;20069;-71
2022/10/01 05:14:10;;;;;;;45.67;24.70;;;;;;;9.70;100.00;98549.41;4362830;32;20082;-72
2022/10/01 05:16:37;;;;;;;47.62;25.33;;;;;;;9.64;100.00;98572.75;4367218;32;20039;-71
2022/10/01 05:19:03;;;;;;;51.42;24.20;;;;;;;9.57;100.00;98566.75;4367006;32;20097;-71
2022/10/01 05:21:30;;;;;;;57.17;26.30;;;;;;;9.78;100.00;98622.34;4357362;32;20410;-71
2022/10/01 05:23:56;;;;;;;54.13;28.30;;;;;;;9.48;100.00;98606.72;4356506;32;20053;-71
2022/10/01 05:26:23;;;;;;;50.85;27.23;;;;;;;9.53;100.00;98585.28;4374246;32;20421;-72
2022/10/01 05:28:50;;;;;;;53.60;27.33;;;;;;;9.68;100.00;98616.84;4382566;32;20054;-73
2022/10/01 05:31:17;;;;;;;52.62;27.17;;;;;;;9.81;100.00;98605.72;4345367;33;20071;-72
2022/10/01 05:33:43;;;;;;;57.78;27.77;;;;;;;9.72;100.00;98607.22;4344919;33;20174;-72
2022/10/01 05:36:10;;;;;;;60.42;28.23;;;;;;;9.65;100.00;98590.47;4344043;33;20425;-76
2022/10/01 05:38:36;;;;;;;52.55;27.27;;;;;;;9.76;100.00;98586.81;4367796;32;20032;-72
2022/10/01 05:41:03;;;;;;;57.78;28.55;;;;;;;9.73;100.00;98592.72;4371089;32;20098;-73
2022/10/01 05:43:30;;;;;;;78.45;29.52;;;;;;;9.57;100.00;98593.63;4371144;32;20510;-73
2022/10/01 05:46:00;;;;;;;70.32;29.42;;;;;;;9.14;100.00;98552.34;4355303;32;20043;-74
2022/10/01 05:48:27;;;;;;;73.37;30.37;;;;;;;9.04;100.00;98543.09;4354914;32;20056;-74
2022/10/01 05:50:54;;;;;;;72.20;30.35;;;;;;;9.48;100.00;98595.16;4353995;32;20028;-74
2022/10/01 05:53:21;;;;;;;63.92;29.33;;;;;;;9.45;100.00;98542.72;4354659;32;20376;-74
2022/10/01 05:55:47;;;;;;;67.62;28.00;;;;;;;9.64;100.00;98557.41;4355213;32;20055;-73
2022/10/01 05:58:14;;;;;;;73.55;28.40;;;;;;;9.56;100.00;98586.66;4331364;33;20047;-75
2022/10/01 06:00:41;;;;;;;62.97;29.67;;;;;;;9.73;100.00;98589.22;4327545;33;20111;-74
2022/10/01 06:03:11;;;;;;;160.75;31.95;;;;;;;10.08;100.00;98575.25;4339627;33;20680;-74
2022/10/01 06:05:37;;;;;;;137.55;28.38;;;;;;;9.72;100.00;98580.34;4340237;33;20031;-73
2022/10/01 06:08:06;;;;;;;154.10;27.42;;;;;;;9.92;100.00;98530.50;4340532;33;20032;-74
2022/10/01 06:10:32;;;;;;;143.90;24.60;;;;;;;9.86;100.00;98526.12;4336723;33;20411;-73
2022/10/01 06:13:00;;;;;;;247.15;26.77;;;;;;;9.76;100.00;98581.44;4340175;33;20212;-74
2022/10/01 06:15:28;;;;;;;167.80;23.77;;;;;;;10.08;100.00;98586.00;4339285;33;20110;-74
2022/10/01 06:17:55;;;;;;;238.07;24.90;;;;;;;9.00;100.00;98552.75;4366320;32;20051;-73
2022/10/01 06:20:22;;;;;;;463.55;33.00;;;;;;;9.11;100.00;98544.78;4354710;32;20063;-77
2022/10/01 06:22:54;;;;;;;336.45;29.10;;;;;;;9.07;100.00;98544.47;4354305;32;20052;-74
2022/10/01 06:25:22;;;;;;;439.52;32.63;;;;;;;9.27;100.00;98592.25;4355318;32;20395;-73
2022/10/01 06:27:56;;;;;;;99.13;19.90;;;;;;;9.62;100.00;98596.38;4355568;32;20032;-74
2022/10/01 06:30:28;;;;;;;103.97;22.37;;;;;;;9.22;100.00;98576.06;4366894;32;20077;-74
2022/10/01 06:33:01;;;;;;;203.30;23.45;;;;;;;8.89;100.00;98551.00;4370762;32;20069;-74
2022/10/01 06:35:29;;;;;;;267.08;26.23;;;;;;;9.02;100.00;98588.19;4365089;32;20048;-73
2022/10/01 06:37:56;;;;;;;323.77;27.27;;;;;;;9.21;100.00;98543.03;4329594;33;20429;-76
2022/10/01 06:40:23;;;;;;;213.55;23.27;;;;;;;8.85;100.00;98547.19;4337536;33;20425;-73
2022/10/01 06:42:59;;;;;;;130.30;18.48;;;;;;;9.02;100.00;98539.06;4340725;33;20158;-74
2022/10/01 06:45:29;;;;;;;272.77;24.50;;;;;;;9.45;100.00;98597.28;4338878;33;20158;-73
2022/10/01 06:48:01;;;;;;;203.02;21.27;;;;;;;9.06;100.00;98589.34;4338046;33;20164;-73
2022/10/01 06:50:28;;;;;;;148.70;19.15;;;;;;;8.99;100.00;98596.75;4339782;33;20047;-74
2022/10/01 06:52:55;;;;;;;146.32;17.12;;;;;;;8.60;100.00;98553.03;4340217;33;20032;-73
2022/10/01 06:55:27;;;;;;;175.00;19.40;;;;;;;9.05;100.00;98603.00;4340230;33;20040;-73
2022/10/01 06:57:59;;;;;;;112.95;18.17;;;;;;;9.43;100.00;98607.47;4338402;33;20133;-74
2022/10/01 07:00:29;;;;;;;157.43;19.62;;;;;;;9.12;100.00;98557.97;4339377;33;20373;-73
2022/10/01 07:02:55;;;;;;;202.87;22.25;;;;;;;10.06;100.00;98601.59;4313819;33;20033;-73
2022/10/01 07:05:23;;;;;;;183.20;21.02;;;;;;;10.10;100.00;98597.34;4338545;32;20437;-73
2022/10/01 07:07:50;;;;;;;111.20;19.05;;;;;;;10.46;100.00;98604.88;4330415;32;20043;-75
2022/10/01 07:10:19;;;;;;;206.25;23.42;;;;;;;9.46;100.00;98598.09;4354040;32;20397;-72
2022/10/01 07:12:48;;;;;;;203.45;21.87;;;;;;;9.61;100.00;98610.88;4322716;33;20036;-74
2022/10/01 07:15:19;;;;;;;121.68;21.27;;;;;;;9.67;100.00;98612.56;4290500;33;20194;-73
2022/10/01 07:17:50;;;;;;;254.02;25.17;;;;;;;9.35;100.00;98581.06;4293194;33;20150;-73
2022/10/01 07:20:19;;;;;;;94.37;20.73;;;;;;;9.96;100.00;98609.59;4294166;33;20162;-73
2022/10/01 07:22:47;;;;;;;169.95;21.90;;;;;;;9.74;100.00;98572.03;4294990;33;20029;-73
2022/10/01 07:25:13;;;;;;;209.68;24.73;;;;;;;10.08;100.00;98610.22;4310316;33;20017;-73
2022/10/01 07:27:40;;;;;;;312.08;28.85;;;;;;;10.33;100.00;98609.62;4295470;33;20201;-72
2022/10/01 07:30:07;;;;;;;116.53;22.67;;;;;;;9.99;100.00;98607.19;4291882;33;20416;-73
2022/10/01 07:32:34;;;;;;;260.27;24.70;;;;;;;9.79;100.00;98570.19;4295816;33;20053;-72
2022/10/01 07:35:00;;;;;;;245.57;25.65;;;;;;;9.88;100.00;98558.97;4295928;33;20037;-72
2022/10/01 07:37:27;;;;;;;137.12;23.00;;;;;;;10.15;100.00;98583.94;4294387;33;20033;-73
2022/10/01 07:39:53;;;;;;;154.52;24.48;;;;;;;9.77;100.00;98545.44;4295153;33;20451;-75
2022/10/01 07:42:20;;;;;;;95.25;24.12;;;;;;;9.94;100.00;98547.16;4292606;33;20076;-72
2022/10/01 07:44:47;;;;;;;142.52;26.02;;;;;;;10.33;100.00;98557.72;4327615;33;20055;-73
2022/10/01 07:47:14;;;;;;;131.77;25.95;;;;;;;10.44;100.00;98597.06;4313472;33;20033;-73
2022/10/01 07:49:40;;;;;;;93.07;25.75;;;;;;;10.58;100.00;98553.53;4309088;33;20049;-73
2022/10/01 07:52:06;;;;;;;135.25;27.73;;;;;;;10.34;100.00;98597.03;4312907;33;20033;-76
2022/10/01 07:54:33;;;;;;;194.30;36.88;;;;;;;10.84;100.00;98589.50;4314744;33;20028;-73
2022/10/01 07:56:59;;;;;;;125.87;28.67;;;;;;;10.58;100.00;98588.53;4326725;33;20062;-73
2022/10/01 07:59:26;;;;;;;73.50;27.92;;;;;;;10.54;100.00;98537.91;4337832;33;20416;-73
2022/10/01 08:01:53;;;;;;;92.82;28.98;;;;;;;10.78;100.00;98580.56;4337601;32;20028;-73
2022/10/01 08:07:07;;;;;;;71.85;28.35;;;;;;;11.01;100.00;98578.50;4352636;32;20032;-72
2022/10/01 08:09:34;;;;;;;70.97;26.98;;;;;;;11.22;100.00;98569.44;4352319;32;20043;-72
2022/10/01 08:12:01;;;;;;;66.05;30.00;;;;;;;11.28;100.00;98564.88;4352547;32;20046;-74
2022/10/01 08:14:29;;;;;;;67.45;29.85;;;;;;;11.30;100.00;98564.62;4353644;32;20065;-74
2022/10/01 08:16:57;;;;;;;68.87;32.03;;;;;;;11.12;100.00;98515.53;4353348;32;20087;-72
2022/10/01 08:19:24;;;;;;;60.42;26.70;;;;;;;10.83;100.00;98518.66;4311230;32;20054;-73
2022/10/01 08:21:51;;;;;;;62.95;26.95;;;;;;;10.51;100.00;98530.37;4360964;32;20492;-76
2022/10/01 08:24:19;;;;;;;72.10;29.35;;;;;;;11.30;100.00;98543.06;4368009;32;20085;-73
2022/10/01 08:26:52;;;;;;;61.83;26.90;;;;;;;11.49;100.00;98503.72;4367340;32;20128;-73
2022/10/01 08:29:19;;;;;;;59.65;27.05;;;;;;;10.83;100.00;98497.13;4364869;32;20102;-73
2022/10/01 08:31:47;;;;;;;57.85;24.48;;;;;;;10.75;100.00;98548.78;4352421;32;20477;-74
2022/10/01 08:34:14;;;;;;;55.60;25.35;;;;;;;11.16;100.00;98556.22;4327104;33;20454;-73
2022/10/01 08:36:40;;;;;;;57.97;26.15;;;;;;;10.90;100.00;98504.94;4337257;33;20143;-73
2022/10/01 08:39:07;;;;;;;55.92;27.08;;;;;;;10.84;100.00;98490.66;4338163;33;20168;-72
2022/10/01 08:41:44;;;;;;;57.53;27.42;;;;;;;11.16;100.00;98540.03;4338311;33;20062;-73
2022/10/01 08:44:42;;;;;;;59.42;27.05;;;;;;;11.33;100.00;98547.88;4336394;33;20032;-73
2022/10/01 08:47:30;;;;;;;59.15;27.08;;;;;;;11.61;100.00;98544.69;4332065;33;20070;-72
2022/10/01 08:50:01;;;;;;;54.92;25.70;;;;;;;11.12;100.00;98456.25;4336995;33;20091;-73
2022/10/01 08:52:41;;;;;;;61.33;27.30;;;;;;;11.75;100.00;98544.19;4336318;33;20069;-73
2022/10/01 08:55:18;;;;;;;74.12;32.75;;;;;;;11.60;100.00;98531.50;4304711;33;20037;-74
2022/10/01 08:57:51;;;;;;;58.20;27.02;;;;;;;11.66;100.00;98529.59;4308113;33;20037;-73
2022/10/01 09:00:19;;;;;;;67.25;31.85;;;;;;;12.37;100.00;98528.78;4308876;33;20115;-73
2022/10/01 09:03:03;;;;;;;59.58;28.83;;;;;;;12.47;100.00;98515.25;4315106;33;20487;-73
2022/10/01 09:05:58;;;;;;;60.08;28.08;;;;;;;12.47;100.00;98511.75;4336111;33;20062;-74
2022/10/01 09:08:51;;;;;;;60.40;29.35;;;;;;;12.77;100.00;98520.84;4349954;32;20064;-73
2022/10/01 09:11:52;;;;;;;57.42;29.50;;;;;;;13.23;100.00;98509.78;4337414;33;20499;-72
2022/10/01 09:14:52;;;;;;;51.60;27.33;;;;;;;12.84;100.00;98507.81;4340196;33;20073;-72
2022/10/01 09:17:34;;;;;;;61.63;33.60;;;;;;;12.42;100.00;98460.47;4351891;32;20125;-73
2022/10/01 09:20:10;;;;;;;52.17;29.02;;;;;;;12.54;100.00;98501.47;4336979;33;20069;-73
2022/10/01 09:22:52;;;;;;;53.58;27.42;;;;;;;12.87;100.00;98488.34;4337364;33;20032;-73
2022/10/01 09:25:24;;;;;;;50.92;27.10;;;;;;;12.80;100.00;98495.97;4337064;33;20432;-72
2022/10/01 09:27:59;;;;;;;50.75;28.65;;;;;;;13.18;100.00;98461.97;4337616;33;20053;-76
2022/10/01 09:30:27;;;;;;;39.85;24.85;;;;;;;12.99;100.00;98488.84;4336492;33;20055;-72
2022/10/01 09:33:01;;;;;;;45.30;24.48;;;;;;;12.57;100.00;98487.38;4337999;33;20040;-73
2022/10/01 09:35:43;;;;;;;45.90;23.90;;;;;;;13.05;100.00;98479.63;4337658;33;20052;-72
2022/10/01 09:38:35;;;;;;;41.03;24.60;;;;;;;13.15;100.00;98488.75;4337300;33;20051;-73
2022/10/01 09:41:01;;;;;;;38.92;21.98;;;;;;;13.33;100.00;98425.94;4335553;33;20109;-74
2022/10/01 09:43:31;;;;;;;42.22;23.65;;;;;;;13.61;100.00;98475.75;4334130;33;20079;-74
2022/10/01 09:45:58;;;;;;;36.05;24.23;;;;;;;13.32;100.00;98459.41;4334848;33;20067;-74
2022/10/01 09:48:37;;;;;;;35.40;21.65;;;;;;;12.93;100.00;98433.19;4337044;33;20393;-74
2022/10/01 09:51:15;;;;;;;34.38;22.17;;;;;;;13.99;100.00;98458.88;4346687;32;20036;-75
2022/10/01 09:53:58;;;;;;;38.33;22.05;;;;;;;13.63;100.00;98386.19;4364707;32;20063;-74
2022/10/01 09:56:41;;;;;;;35.60;22.60;;;;;;;13.65;100.00;98443.50;4369773;32;20035;-74
2022/10/01 09:59:15;;;;;;;30.00;18.80;;;;;;;13.56;100.00;98439.81;4380556;32;20231;-75
2022/10/01 10:01:50;;;;;;;33.25;20.25;;;;;;;13.59;100.00;98450.06;4377714;32;20425;-73
2022/10/01 10:04:20;;;;;;;34.63;18.48;;;;;;;13.69;100.00;98436.47;4382445;32;20101;-74
2022/10/01 10:06:46;;;;;;;30.98;21.20;;;;;;;13.74;100.00;98439.09;4383103;32;20069;-75
2022/10/01 10:09:20;;;;;;;33.42;19.20;;;;;;;13.49;100.00;98396.06;4385193;32;20052;-73
2022/10/01 10:11:47;;;;;;;29.27;18.80;;;;;;;14.39;100.00;98424.34;4385039;32;20100;-72
2022/10/01 10:14:23;;;;;;;35.95;19.70;;;;;;;14.84;100.00;98430.28;4383633;32;20023;-73
2022/10/01 10:16:50;;;;;;;28.95;18.37;;;;;;;14.61;100.00;98412.19;4377498;32;20077;-73
2022/10/01 10:19:26;;;;;;;29.17;17.90;;;;;;;14.04;100.00;98412.84;4381574;32;20400;-73
2022/10/01 10:21:56;;;;;;;26.12;16.37;;;;;;;14.11;100.00;98413.28;4336878;33;20044;-74
2022/10/01 10:24:26;;;;;;;29.27;17.27;;;;;;;14.04;100.00;98369.53;4329319;33;20013;-77
2022/10/01 10:26:55;;;;;;;24.00;16.83;;;;;;;13.84;100.00;98304.81;4317544;33;20364;-75
2022/10/01 10:29:36;;;;;;;21.37;15.65;;;;;;;14.35;100.00;98397.03;4304472;33;20037;-74
2022/10/01 10:32:13;;;;;;;27.42;17.27;;;;;;;14.54;100.00;98399.75;4289925;33;20075;-77
2022/10/01 10:34:45;;;;;;;23.27;14.87;;;;;;;14.57;100.00;98392.97;4278582;33;20059;-73
2022/10/01 10:37:13;;;;;;;;;;;;;;;14.78;100.00;98387.31;4269626;33;20108;-73
2022/10/01 10:39:43;;;;;;;25.65;14.13;;;;;;;14.63;100.00;98369.34;4275178;33;20279;-76
2022/10/01 10:42:17;;;;;;;20.40;12.52;;;;;;;15.01;100.00;98374.75;4270837;33;20087;-73
2022/10/01 10:44:48;;;;;;;18.00;12.45;;;;;;;14.96;100.00;98364.00;4277502;33;20432;-73
2022/10/01 10:47:18;;;;;;;22.27;14.68;;;;;;;15.50;100.00;98327.28;4279468;33;20033;-74
2022/10/01 10:49:53;;;;;;;28.12;14.57;;;;;;;15.64;100.00;98335.47;4279321;33;20415;-75
2022/10/01 10:52:28;;;;;;;28.87;13.55;;;;;;;15.56;100.00;98364.09;4268603;33;20041;-74
2022/10/01 10:54:58;;;;;;;18.92;13.70;;;;;;;15.17;100.00;98321.91;4294991;33;20041;-72
2022/10/01 10:57:27;;;;;;;20.27;12.60;;;;;;;15.14;100.00;98324.37;4299305;33;20037;-74
2022/10/01 11:00:00;;;;;;;20.92;13.70;;;;;;;16.41;100.00;98354.87;4308375;33;20045;-73
2022/10/01 11:02:30;;;;;;;24.37;14.60;;;;;;;16.48;100.00;98347.09;4312918;33;20097;-73
2022/10/01 11:05:00;;;;;;;23.98;14.82;;;;;;;16.56;100.00;98351.84;4323050;33;20066;-78
2022/10/01 11:10:12;;;;;;;19.02;11.02;;;;;;;15.46;100.00;98330.91;4353956;32;20166;-73
2022/10/01 11:12:48;;;;;;;18.17;10.38;;;;;;;16.15;100.00;98336.41;4354864;32;20028;-73
2022/10/01 11:15:33;;;;;;;16.58;10.50;;;;;;;16.38;100.00;98295.72;4352208;32;20104;-76
2022/10/01 11:18:25;;;;;;;23.83;13.13;;;;;;;16.63;100.00;98325.03;4354245;32;20043;-73
2022/10/01 11:21:20;;;;;;;25.60;13.45;;;;;;;17.05;100.00;98286.81;4352837;32;20059;-73
2022/10/01 11:23:53;;;;;;;21.95;12.70;;;;;;;17.03;100.00;98319.75;4374026;32;20323;-73
2022/10/01 11:26:36;;;;;;;19.58;11.90;;;;;;;16.85;100.00;98315.31;4365351;32;20125;-70
2022/10/01 11:29:40;;;;;;;15.77;11.18;;;;;;;16.16;100.00;98268.22;4369313;32;20552;-72
2022/10/01 11:32:16;;;;;;;20.37;13.25;;;;;;;16.01;100.00;98303.03;4367872;32;20036;-73
2022/10/01 11:34:50;;;;;;;17.60;11.35;;;;;;;16.58;100.00;98299.88;4365667;32;20113;-71
2022/10/01 11:37:40;;;;;;;21.92;13.65;;;;;;;16.30;100.00;98295.31;4363730;32;20090;-72
2022/10/01 11:40:23;;;;;;;16.42;11.12;;;;;;;15.95;100.00;98256.16;4359301;32;20035;-72
2022/10/01 11:42:56;;;;;;;15.90;10.20;;;;;;;16.19;100.00;98283.06;4364937;32;20169;-72
2022/10/01 11:45:34;;;;;;;16.73;10.30;;;;;;;15.88;100.00;98289.16;4369476;32;20535;-72
2022/10/01 11:48:13;;;;;;;16.40;11.40;;;;;;;16.19;100.00;98283.06;4367479;32;20106;-73